sensor_id;sensor_type;location;lat;lon;timestamp;P1;durP1;ratioP1;P2;durP2;ratioP2
15567;SDS011;7885;42.596;23.044;2023-03-23T00:01:00;56.60;;;26.23;;
15567;SDS011;7885;42.596;23.044;2023-03-23T00:03:27;35.97;;;23.23;;
15567;SDS011;7885;42.596;23.044;2023-03-23T00:05:56;41.67;;;23.53;;
15567;SDS011;7885;42.596;23.044;2023-03-23T00:08:29;40.83;;;27.37;;
15567;SDS011;7885;42.596;23.044;2023-03-23T00:10:57;38.00;;;27.67;;
15567;SDS011;7885;42.596;23.044;2023-03-23T00:13:27;39.90;;;23.60;;
15567;SDS011;7885;42.596;23.044;2023-03-23T00:15:54;54.93;;;21.57;;
15567;SDS011;7885;42.596;23.044;2023-03-23T00:18:22;55.43;;;22.83;;
15567;SDS011;7885;42.596;23.044;2023-03-23T00:20:50;105.13;;;25.03;;
15567;SDS011;7885;42.596;23.044;2023-03-23T00:23:18;242.17;;;28.80;;
15567;SDS011;7885;42.596;23.044;2023-03-23T00:25:46;222.53;;;35.03;;
15567;SDS011;7885;42.596;23.044;2023-03-23T00:28:14;320.53;;;44.37;;
15567;SDS011;7885;42.596;23.044;2023-03-23T00:30:48;71.03;;;36.27;;
15567;SDS011;7885;42.596;23.044;2023-03-23T00:33:16;48.53;;;32.97;;
15567;SDS011;7885;42.596;23.044;2023-03-23T00:35:43;44.87;;;31.70;;
15567;SDS011;7885;42.596;23.044;2023-03-23T00:38:10;67.83;;;31.60;;
15567;SDS011;7885;42.596;23.044;2023-03-23T00:40:37;52.13;;;30.17;;
15567;SDS011;7885;42.596;23.044;2023-03-23T00:43:04;44.73;;;30.50;;
15567;SDS011;7885;42.596;23.044;2023-03-23T00:45:30;47.43;;;31.13;;
15567;SDS011;7885;42.596;23.044;2023-03-23T00:48:01;53.60;;;30.87;;
15567;SDS011;7885;42.596;23.044;2023-03-23T00:50:29;82.97;;;30.07;;
15567;SDS011;7885;42.596;23.044;2023-03-23T00:52:56;174.33;;;30.43;;
15567;SDS011;7885;42.596;23.044;2023-03-23T00:55:23;245.53;;;32.97;;
15567;SDS011;7885;42.596;23.044;2023-03-23T00:57:50;103.00;;;31.27;;
15567;SDS011;7885;42.596;23.044;2023-03-23T01:00:19;188.83;;;33.00;;
15567;SDS011;7885;42.596;23.044;2023-03-23T01:02:46;178.47;;;34.40;;
15567;SDS011;7885;42.596;23.044;2023-03-23T01:05:14;131.07;;;31.70;;
15567;SDS011;7885;42.596;23.044;2023-03-23T01:07:41;184.67;;;32.90;;
15567;SDS011;7885;42.596;23.044;2023-03-23T01:10:09;324.97;;;37.87;;
15567;SDS011;7885;42.596;23.044;2023-03-23T01:12:41;226.60;;;33.67;;
15567;SDS011;7885;42.596;23.044;2023-03-23T01:15:09;159.10;;;29.47;;
15567;SDS011;7885;42.596;23.044;2023-03-23T01:17:39;205.13;;;31.03;;
15567;SDS011;7885;42.596;23.044;2023-03-23T01:20:07;97.23;;;23.80;;
15567;SDS011;7885;42.596;23.044;2023-03-23T01:22:35;80.50;;;28.03;;
15567;SDS011;7885;42.596;23.044;2023-03-23T01:25:02;67.87;;;27.07;;
15567;SDS011;7885;42.596;23.044;2023-03-23T01:27:29;72.63;;;27.40;;
15567;SDS011;7885;42.596;23.044;2023-03-23T01:29:56;109.50;;;27.40;;
15567;SDS011;7885;42.596;23.044;2023-03-23T01:32:22;149.63;;;29.13;;
15567;SDS011;7885;42.596;23.044;2023-03-23T01:34:49;114.23;;;28.47;;
15567;SDS011;7885;42.596;23.044;2023-03-23T01:37:16;201.70;;;30.23;;
15567;SDS011;7885;42.596;23.044;2023-03-23T01:39:44;203.77;;;30.87;;
15567;SDS011;7885;42.596;23.044;2023-03-23T01:42:11;371.90;;;33.00;;
15567;SDS011;7885;42.596;23.044;2023-03-23T01:47:51;156.83;;;24.90;;
15567;SDS011;7885;42.596;23.044;2023-03-23T01:50:21;57.70;;;25.07;;
15567;SDS011;7885;42.596;23.044;2023-03-23T01:52:51;58.97;;;26.77;;
15567;SDS011;7885;42.596;23.044;2023-03-23T01:55:22;34.23;;;25.03;;
15567;SDS011;7885;42.596;23.044;2023-03-23T01:57:53;35.30;;;24.43;;
15567;SDS011;7885;42.596;23.044;2023-03-23T02:00:22;48.00;;;22.87;;
15567;SDS011;7885;42.596;23.044;2023-03-23T02:02:50;45.20;;;23.13;;
15567;SDS011;7885;42.596;23.044;2023-03-23T02:05:20;35.10;;;21.70;;
15567;SDS011;7885;42.596;23.044;2023-03-23T02:07:53;33.17;;;21.20;;
15567;SDS011;7885;42.596;23.044;2023-03-23T02:10:25;40.00;;;23.17;;
15567;SDS011;7885;42.596;23.044;2023-03-23T02:12:52;97.53;;;24.83;;
15567;SDS011;7885;42.596;23.044;2023-03-23T02:15:18;115.63;;;25.90;;
15567;SDS011;7885;42.596;23.044;2023-03-23T02:17:48;135.17;;;27.83;;
15567;SDS011;7885;42.596;23.044;2023-03-23T02:20:33;217.93;;;30.27;;
15567;SDS011;7885;42.596;23.044;2023-03-23T02:23:28;136.60;;;27.83;;
15567;SDS011;7885;42.596;23.044;2023-03-23T02:26:25;358.53;;;34.60;;
15567;SDS011;7885;42.596;23.044;2023-03-23T02:32:16;30.97;;;22.50;;
15567;SDS011;7885;42.596;23.044;2023-03-23T02:35:02;47.23;;;33.77;;
15567;SDS011;7885;42.596;23.044;2023-03-23T02:37:36;37.30;;;27.40;;
15567;SDS011;7885;42.596;23.044;2023-03-23T02:40:06;41.33;;;30.70;;
15567;SDS011;7885;42.596;23.044;2023-03-23T02:42:38;51.17;;;33.90;;
15567;SDS011;7885;42.596;23.044;2023-03-23T02:45:10;55.57;;;38.20;;
15567;SDS011;7885;42.596;23.044;2023-03-23T02:47:38;50.63;;;33.17;;
15567;SDS011;7885;42.596;23.044;2023-03-23T02:50:10;47.90;;;32.80;;
15567;SDS011;7885;42.596;23.044;2023-03-23T02:52:40;44.70;;;31.30;;
15567;SDS011;7885;42.596;23.044;2023-03-23T02:55:08;41.63;;;30.27;;
15567;SDS011;7885;42.596;23.044;2023-03-23T02:57:39;46.50;;;29.87;;
15567;SDS011;7885;42.596;23.044;2023-03-23T03:00:06;55.17;;;35.53;;
15567;SDS011;7885;42.596;23.044;2023-03-23T03:02:38;45.37;;;33.23;;
15567;SDS011;7885;42.596;23.044;2023-03-23T03:05:11;42.07;;;29.80;;
15567;SDS011;7885;42.596;23.044;2023-03-23T03:07:49;38.80;;;28.20;;
15567;SDS011;7885;42.596;23.044;2023-03-23T03:10:26;40.33;;;27.63;;
15567;SDS011;7885;42.596;23.044;2023-03-23T03:13:00;43.67;;;29.77;;
15567;SDS011;7885;42.596;23.044;2023-03-23T03:15:31;46.87;;;34.80;;
15567;SDS011;7885;42.596;23.044;2023-03-23T03:18:04;39.17;;;26.87;;
15567;SDS011;7885;42.596;23.044;2023-03-23T03:20:53;42.37;;;28.03;;
15567;SDS011;7885;42.596;23.044;2023-03-23T03:23:25;64.57;;;31.97;;
15567;SDS011;7885;42.596;23.044;2023-03-23T03:25:54;314.33;;;32.37;;
15567;SDS011;7885;42.596;23.044;2023-03-23T03:28:23;290.43;;;28.33;;
15567;SDS011;7885;42.596;23.044;2023-03-23T03:30:52;202.70;;;27.43;;
15567;SDS011;7885;42.596;23.044;2023-03-23T03:33:22;93.33;;;27.90;;
15567;SDS011;7885;42.596;23.044;2023-03-23T03:35:52;110.93;;;28.97;;
15567;SDS011;7885;42.596;23.044;2023-03-23T03:38:21;53.97;;;29.37;;
15567;SDS011;7885;42.596;23.044;2023-03-23T03:40:49;79.83;;;26.70;;
15567;SDS011;7885;42.596;23.044;2023-03-23T03:43:16;90.07;;;28.93;;
15567;SDS011;7885;42.596;23.044;2023-03-23T03:45:43;62.63;;;31.13;;
15567;SDS011;7885;42.596;23.044;2023-03-23T03:48:10;121.27;;;33.37;;
15567;SDS011;7885;42.596;23.044;2023-03-23T03:50:37;98.83;;;41.97;;
15567;SDS011;7885;42.596;23.044;2023-03-23T03:53:05;268.23;;;38.13;;
15567;SDS011;7885;42.596;23.044;2023-03-23T03:55:32;394.10;;;36.23;;
15567;SDS011;7885;42.596;23.044;2023-03-23T03:58:00;194.70;;;33.10;;
15567;SDS011;7885;42.596;23.044;2023-03-23T04:00:27;303.10;;;35.00;;
15567;SDS011;7885;42.596;23.044;2023-03-23T04:02:54;202.20;;;32.33;;
15567;SDS011;7885;42.596;23.044;2023-03-23T04:05:21;172.73;;;33.43;;
15567;SDS011;7885;42.596;23.044;2023-03-23T04:07:49;99.07;;;33.00;;
15567;SDS011;7885;42.596;23.044;2023-03-23T04:10:19;60.93;;;32.73;;
15567;SDS011;7885;42.596;23.044;2023-03-23T04:12:47;87.30;;;33.60;;
15567;SDS011;7885;42.596;23.044;2023-03-23T04:15:14;49.30;;;30.70;;
15567;SDS011;7885;42.596;23.044;2023-03-23T04:17:41;65.90;;;32.50;;
15567;SDS011;7885;42.596;23.044;2023-03-23T04:20:08;82.90;;;39.27;;
15567;SDS011;7885;42.596;23.044;2023-03-23T04:22:42;67.53;;;37.93;;
15567;SDS011;7885;42.596;23.044;2023-03-23T04:25:10;88.73;;;33.87;;
15567;SDS011;7885;42.596;23.044;2023-03-23T04:27:40;75.73;;;33.67;;
15567;SDS011;7885;42.596;23.044;2023-03-23T04:30:12;118.87;;;30.50;;
15567;SDS011;7885;42.596;23.044;2023-03-23T04:32:39;134.07;;;31.93;;
15567;SDS011;7885;42.596;23.044;2023-03-23T04:35:07;173.93;;;34.10;;
15567;SDS011;7885;42.596;23.044;2023-03-23T04:37:36;186.70;;;32.70;;
15567;SDS011;7885;42.596;23.044;2023-03-23T04:40:04;132.50;;;32.37;;
15567;SDS011;7885;42.596;23.044;2023-03-23T04:42:36;158.37;;;31.57;;
15567;SDS011;7885;42.596;23.044;2023-03-23T04:45:06;188.73;;;31.70;;
15567;SDS011;7885;42.596;23.044;2023-03-23T04:47:35;252.63;;;32.40;;
15567;SDS011;7885;42.596;23.044;2023-03-23T04:50:06;235.47;;;30.57;;
15567;SDS011;7885;42.596;23.044;2023-03-23T04:52:34;148.33;;;24.20;;
15567;SDS011;7885;42.596;23.044;2023-03-23T04:55:03;200.30;;;25.23;;
15567;SDS011;7885;42.596;23.044;2023-03-23T04:57:30;125.43;;;23.57;;
15567;SDS011;7885;42.596;23.044;2023-03-23T04:59:58;88.13;;;25.07;;
15567;SDS011;7885;42.596;23.044;2023-03-23T05:02:26;97.17;;;26.70;;
15567;SDS011;7885;42.596;23.044;2023-03-23T05:04:55;67.80;;;27.00;;
15567;SDS011;7885;42.596;23.044;2023-03-23T05:07:22;93.97;;;28.67;;
15567;SDS011;7885;42.596;23.044;2023-03-23T05:09:49;100.63;;;28.00;;
15567;SDS011;7885;42.596;23.044;2023-03-23T05:12:16;219.10;;;29.37;;
15567;SDS011;7885;42.596;23.044;2023-03-23T05:14:43;185.23;;;26.23;;
15567;SDS011;7885;42.596;23.044;2023-03-23T05:17:10;80.70;;;24.73;;
15567;SDS011;7885;42.596;23.044;2023-03-23T05:19:39;104.00;;;21.73;;
15567;SDS011;7885;42.596;23.044;2023-03-23T05:22:08;107.03;;;21.90;;
15567;SDS011;7885;42.596;23.044;2023-03-23T05:24:37;159.50;;;24.90;;
15567;SDS011;7885;42.596;23.044;2023-03-23T05:27:04;68.77;;;21.40;;
15567;SDS011;7885;42.596;23.044;2023-03-23T05:29:33;128.10;;;28.20;;
15567;SDS011;7885;42.596;23.044;2023-03-23T05:32:01;190.70;;;25.57;;
15567;SDS011;7885;42.596;23.044;2023-03-23T05:34:28;269.10;;;26.73;;
15567;SDS011;7885;42.596;23.044;2023-03-23T05:36:58;150.67;;;37.03;;
15567;SDS011;7885;42.596;23.044;2023-03-23T05:39:25;115.87;;;28.87;;
15567;SDS011;7885;42.596;23.044;2023-03-23T05:41:53;187.07;;;25.90;;
15567;SDS011;7885;42.596;23.044;2023-03-23T05:44:20;255.57;;;27.43;;
15567;SDS011;7885;42.596;23.044;2023-03-23T05:46:47;102.23;;;31.27;;
15567;SDS011;7885;42.596;23.044;2023-03-23T05:49:14;104.60;;;33.20;;
15567;SDS011;7885;42.596;23.044;2023-03-23T05:51:42;161.73;;;33.03;;
15567;SDS011;7885;42.596;23.044;2023-03-23T05:54:10;207.33;;;40.03;;
15567;SDS011;7885;42.596;23.044;2023-03-23T05:56:37;194.73;;;52.93;;
15567;SDS011;7885;42.596;23.044;2023-03-23T05:59:04;137.60;;;48.97;;
15567;SDS011;7885;42.596;23.044;2023-03-23T06:01:30;126.37;;;46.13;;
15567;SDS011;7885;42.596;23.044;2023-03-23T06:07:20;139.77;;;34.17;;
15567;SDS011;7885;42.596;23.044;2023-03-23T06:09:48;173.73;;;35.90;;
15567;SDS011;7885;42.596;23.044;2023-03-23T06:12:16;225.53;;;33.60;;
15567;SDS011;7885;42.596;23.044;2023-03-23T06:14:45;150.83;;;34.97;;
15567;SDS011;7885;42.596;23.044;2023-03-23T06:17:12;252.47;;;48.67;;
15567;SDS011;7885;42.596;23.044;2023-03-23T06:19:38;196.33;;;40.83;;
15567;SDS011;7885;42.596;23.044;2023-03-23T06:22:05;166.20;;;39.57;;
15567;SDS011;7885;42.596;23.044;2023-03-23T06:24:32;123.97;;;35.97;;
15567;SDS011;7885;42.596;23.044;2023-03-23T06:27:00;200.37;;;32.33;;
15567;SDS011;7885;42.596;23.044;2023-03-23T06:29:27;119.97;;;30.57;;
15567;SDS011;7885;42.596;23.044;2023-03-23T06:31:55;114.63;;;31.20;;
15567;SDS011;7885;42.596;23.044;2023-03-23T06:34:24;142.83;;;32.83;;
15567;SDS011;7885;42.596;23.044;2023-03-23T06:36:51;105.00;;;30.20;;
15567;SDS011;7885;42.596;23.044;2023-03-23T06:39:18;204.77;;;33.73;;
15567;SDS011;7885;42.596;23.044;2023-03-23T06:41:46;131.30;;;32.03;;
15567;SDS011;7885;42.596;23.044;2023-03-23T06:44:14;111.50;;;32.43;;
15567;SDS011;7885;42.596;23.044;2023-03-23T06:46:41;111.33;;;31.57;;
15567;SDS011;7885;42.596;23.044;2023-03-23T06:49:08;180.20;;;30.90;;
15567;SDS011;7885;42.596;23.044;2023-03-23T06:51:36;121.07;;;30.27;;
15567;SDS011;7885;42.596;23.044;2023-03-23T06:54:03;87.43;;;28.97;;
15567;SDS011;7885;42.596;23.044;2023-03-23T06:56:30;74.37;;;28.80;;
15567;SDS011;7885;42.596;23.044;2023-03-23T06:58:57;75.20;;;30.27;;
15567;SDS011;7885;42.596;23.044;2023-03-23T07:01:25;66.47;;;29.70;;
15567;SDS011;7885;42.596;23.044;2023-03-23T07:03:53;132.10;;;29.73;;
15567;SDS011;7885;42.596;23.044;2023-03-23T07:06:20;97.10;;;29.63;;
15567;SDS011;7885;42.596;23.044;2023-03-23T07:08:47;83.47;;;29.10;;
15567;SDS011;7885;42.596;23.044;2023-03-23T07:11:14;68.13;;;28.30;;
15567;SDS011;7885;42.596;23.044;2023-03-23T07:13:41;71.03;;;29.37;;
15567;SDS011;7885;42.596;23.044;2023-03-23T07:16:08;65.97;;;30.80;;
15567;SDS011;7885;42.596;23.044;2023-03-23T07:18:37;49.83;;;30.90;;
15567;SDS011;7885;42.596;23.044;2023-03-23T07:21:04;50.30;;;31.00;;
15567;SDS011;7885;42.596;23.044;2023-03-23T07:23:31;58.73;;;27.53;;
15567;SDS011;7885;42.596;23.044;2023-03-23T07:25:58;74.20;;;31.40;;
15567;SDS011;7885;42.596;23.044;2023-03-23T07:28:25;59.67;;;32.63;;
15567;SDS011;7885;42.596;23.044;2023-03-23T07:30:52;48.43;;;31.23;;
15567;SDS011;7885;42.596;23.044;2023-03-23T07:33:19;58.67;;;35.23;;
15567;SDS011;7885;42.596;23.044;2023-03-23T07:35:47;53.93;;;35.13;;
15567;SDS011;7885;42.596;23.044;2023-03-23T07:38:14;58.80;;;38.90;;
15567;SDS011;7885;42.596;23.044;2023-03-23T07:40:41;61.47;;;39.37;;
15567;SDS011;7885;42.596;23.044;2023-03-23T07:43:09;60.77;;;39.60;;
15567;SDS011;7885;42.596;23.044;2023-03-23T07:45:35;51.70;;;37.30;;
15567;SDS011;7885;42.596;23.044;2023-03-23T07:48:02;51.53;;;37.47;;
15567;SDS011;7885;42.596;23.044;2023-03-23T07:50:30;51.73;;;36.93;;
15567;SDS011;7885;42.596;23.044;2023-03-23T07:52:59;49.20;;;35.63;;
15567;SDS011;7885;42.596;23.044;2023-03-23T07:55:25;53.17;;;38.67;;
15567;SDS011;7885;42.596;23.044;2023-03-23T07:57:53;49.27;;;35.97;;
15567;SDS011;7885;42.596;23.044;2023-03-23T08:00:21;47.03;;;36.83;;
15567;SDS011;7885;42.596;23.044;2023-03-23T08:02:50;42.97;;;34.57;;
15567;SDS011;7885;42.596;23.044;2023-03-23T08:05:18;42.77;;;36.37;;
15567;SDS011;7885;42.596;23.044;2023-03-23T08:07:45;44.10;;;35.60;;
15567;SDS011;7885;42.596;23.044;2023-03-23T08:10:14;39.95;;;33.38;;
15567;SDS011;7885;42.596;23.044;2023-03-23T08:12:42;28.05;;;24.88;;
15567;SDS011;7885;42.596;23.044;2023-03-23T08:15:10;34.85;;;29.80;;
15567;SDS011;7885;42.596;23.044;2023-03-23T08:17:39;33.50;;;29.58;;
15567;SDS011;7885;42.596;23.044;2023-03-23T08:20:08;31.48;;;28.10;;
15567;SDS011;7885;42.596;23.044;2023-03-23T08:22:38;31.65;;;28.33;;
15567;SDS011;7885;42.596;23.044;2023-03-23T08:25:06;33.22;;;29.67;;
15567;SDS011;7885;42.596;23.044;2023-03-23T08:27:36;30.33;;;27.20;;
15567;SDS011;7885;42.596;23.044;2023-03-23T08:30:07;33.42;;;28.35;;
15567;SDS011;7885;42.596;23.044;2023-03-23T08:32:35;32.53;;;28.00;;
15567;SDS011;7885;42.596;23.044;2023-03-23T08:35:02;31.42;;;28.02;;
15567;SDS011;7885;42.596;23.044;2023-03-23T08:37:30;28.85;;;25.05;;
15567;SDS011;7885;42.596;23.044;2023-03-23T08:39:56;24.92;;;22.33;;
15567;SDS011;7885;42.596;23.044;2023-03-23T08:49:08;26.30;;;23.58;;
15567;SDS011;7885;42.596;23.044;2023-03-23T08:51:34;20.10;;;18.02;;
15567;SDS011;7885;42.596;23.044;2023-03-23T08:54:02;24.75;;;20.25;;
15567;SDS011;7885;42.596;23.044;2023-03-23T08:56:29;22.08;;;19.67;;
15567;SDS011;7885;42.596;23.044;2023-03-23T08:58:56;23.33;;;20.58;;
15567;SDS011;7885;42.596;23.044;2023-03-23T09:01:22;29.20;;;21.38;;
15567;SDS011;7885;42.596;23.044;2023-03-23T09:03:49;22.20;;;19.70;;
15567;SDS011;7885;42.596;23.044;2023-03-23T09:06:18;21.20;;;18.95;;
15567;SDS011;7885;42.596;23.044;2023-03-23T09:08:44;20.73;;;18.63;;
15567;SDS011;7885;42.596;23.044;2023-03-23T09:11:11;19.30;;;16.48;;
15567;SDS011;7885;42.596;23.044;2023-03-23T09:13:38;9.77;;;8.77;;
15567;SDS011;7885;42.596;23.044;2023-03-23T09:16:06;10.25;;;9.25;;
15567;SDS011;7885;42.596;23.044;2023-03-23T09:18:34;11.68;;;10.05;;
15567;SDS011;7885;42.596;23.044;2023-03-23T09:21:01;11.02;;;9.68;;
15567;SDS011;7885;42.596;23.044;2023-03-23T09:23:30;9.80;;;8.90;;
15567;SDS011;7885;42.596;23.044;2023-03-23T09:25:59;9.73;;;8.73;;
15567;SDS011;7885;42.596;23.044;2023-03-23T09:28:26;11.15;;;10.25;;
15567;SDS011;7885;42.596;23.044;2023-03-23T09:30:54;11.65;;;10.65;;
15567;SDS011;7885;42.596;23.044;2023-03-23T09:33:24;12.35;;;11.10;;
15567;SDS011;7885;42.596;23.044;2023-03-23T09:35:52;11.20;;;10.20;;
15567;SDS011;7885;42.596;23.044;2023-03-23T09:38:18;8.70;;;7.93;;
15567;SDS011;7885;42.596;23.044;2023-03-23T09:40:49;9.63;;;8.73;;
15567;SDS011;7885;42.596;23.044;2023-03-23T09:46:46;13.73;;;12.57;;
15567;SDS011;7885;42.596;23.044;2023-03-23T09:49:20;8.32;;;7.63;;
15567;SDS011;7885;42.596;23.044;2023-03-23T09:51:51;6.32;;;5.90;;
15567;SDS011;7885;42.596;23.044;2023-03-23T09:54:21;7.55;;;6.95;;
15567;SDS011;7885;42.596;23.044;2023-03-23T09:56:54;8.07;;;6.57;;
15567;SDS011;7885;42.596;23.044;2023-03-23T09:59:24;7.35;;;6.78;;
15567;SDS011;7885;42.596;23.044;2023-03-23T10:01:55;7.80;;;7.10;;
15567;SDS011;7885;42.596;23.044;2023-03-23T10:04:28;8.23;;;7.63;;
15567;SDS011;7885;42.596;23.044;2023-03-23T10:07:06;7.88;;;7.22;;
15567;SDS011;7885;42.596;23.044;2023-03-23T10:09:36;8.23;;;7.63;;
15567;SDS011;7885;42.596;23.044;2023-03-23T10:12:06;7.60;;;7.00;;
15567;SDS011;7885;42.596;23.044;2023-03-23T10:14:48;7.60;;;6.88;;
15567;SDS011;7885;42.596;23.044;2023-03-23T10:17:27;7.40;;;6.80;;
15567;SDS011;7885;42.596;23.044;2023-03-23T10:19:58;11.73;;;7.60;;
15567;SDS011;7885;42.596;23.044;2023-03-23T10:22:34;7.93;;;6.50;;
15567;SDS011;7885;42.596;23.044;2023-03-23T10:25:08;7.13;;;6.57;;
15567;SDS011;7885;42.596;23.044;2023-03-23T10:27:44;7.13;;;6.53;;
15567;SDS011;7885;42.596;23.044;2023-03-23T10:30:17;6.85;;;6.15;;
15567;SDS011;7885;42.596;23.044;2023-03-23T10:32:48;6.90;;;6.28;;
15567;SDS011;7885;42.596;23.044;2023-03-23T10:35:19;6.47;;;5.97;;
15567;SDS011;7885;42.596;23.044;2023-03-23T10:37:52;8.10;;;6.60;;
15567;SDS011;7885;42.596;23.044;2023-03-23T10:40:25;7.15;;;6.18;;
15567;SDS011;7885;42.596;23.044;2023-03-23T10:42:56;6.93;;;6.15;;
15567;SDS011;7885;42.596;23.044;2023-03-23T10:45:24;7.30;;;6.70;;
15567;SDS011;7885;42.596;23.044;2023-03-23T10:47:55;7.07;;;6.47;;
15567;SDS011;7885;42.596;23.044;2023-03-23T10:50:27;7.82;;;7.13;;
15567;SDS011;7885;42.596;23.044;2023-03-23T10:52:57;6.88;;;6.38;;
15567;SDS011;7885;42.596;23.044;2023-03-23T10:55:35;7.65;;;7.05;;
15567;SDS011;7885;42.596;23.044;2023-03-23T10:58:06;7.88;;;7.18;;
15567;SDS011;7885;42.596;23.044;2023-03-23T11:00:40;7.93;;;7.22;;
15567;SDS011;7885;42.596;23.044;2023-03-23T11:05:55;7.93;;;7.22;;
15567;SDS011;7885;42.596;23.044;2023-03-23T11:08:25;7.50;;;6.80;;
15567;SDS011;7885;42.596;23.044;2023-03-23T11:10:55;7.40;;;6.70;;
15567;SDS011;7885;42.596;23.044;2023-03-23T11:13:28;7.05;;;6.40;;
15567;SDS011;7885;42.596;23.044;2023-03-23T11:15:57;7.07;;;6.03;;
15567;SDS011;7885;42.596;23.044;2023-03-23T11:18:26;7.35;;;6.65;;
15567;SDS011;7885;42.596;23.044;2023-03-23T11:21:01;7.82;;;7.03;;
15567;SDS011;7885;42.596;23.044;2023-03-23T11:23:30;6.65;;;6.15;;
15567;SDS011;7885;42.596;23.044;2023-03-23T11:26:03;7.50;;;6.78;;
15567;SDS011;7885;42.596;23.044;2023-03-23T11:28:41;8.00;;;7.20;;
15567;SDS011;7885;42.596;23.044;2023-03-23T11:31:11;7.35;;;6.65;;
15567;SDS011;7885;42.596;23.044;2023-03-23T11:33:46;7.07;;;6.47;;
15567;SDS011;7885;42.596;23.044;2023-03-23T11:36:20;7.30;;;6.68;;
15567;SDS011;7885;42.596;23.044;2023-03-23T11:38:51;6.82;;;6.10;;
15567;SDS011;7885;42.596;23.044;2023-03-23T11:41:22;7.00;;;6.40;;
15567;SDS011;7885;42.596;23.044;2023-03-23T11:44:02;6.70;;;6.10;;
15567;SDS011;7885;42.596;23.044;2023-03-23T11:46:37;6.75;;;5.80;;
15567;SDS011;7885;42.596;23.044;2023-03-23T11:49:12;8.85;;;6.13;;
15567;SDS011;7885;42.596;23.044;2023-03-23T11:51:47;6.68;;;6.07;;
15567;SDS011;7885;42.596;23.044;2023-03-23T11:54:19;6.10;;;5.50;;
15567;SDS011;7885;42.596;23.044;2023-03-23T11:56:52;6.47;;;5.97;;
15567;SDS011;7885;42.596;23.044;2023-03-23T11:59:26;6.80;;;6.20;;
15567;SDS011;7885;42.596;23.044;2023-03-23T12:01:56;7.45;;;6.43;;
15567;SDS011;7885;42.596;23.044;2023-03-23T12:04:35;7.78;;;6.45;;
15567;SDS011;7885;42.596;23.044;2023-03-23T12:07:46;7.95;;;5.97;;
15567;SDS011;7885;42.596;23.044;2023-03-23T12:10:25;5.97;;;5.45;;
15567;SDS011;7885;42.596;23.044;2023-03-23T12:13:01;6.47;;;5.90;;
15567;SDS011;7885;42.596;23.044;2023-03-23T12:15:38;6.53;;;5.95;;
15567;SDS011;7885;42.596;23.044;2023-03-23T12:18:14;7.97;;;6.13;;
15567;SDS011;7885;42.596;23.044;2023-03-23T12:20:53;7.07;;;5.95;;
15567;SDS011;7885;42.596;23.044;2023-03-23T12:23:33;5.82;;;5.25;;
15567;SDS011;7885;42.596;23.044;2023-03-23T12:26:16;8.60;;;6.82;;
15567;SDS011;7885;42.596;23.044;2023-03-23T12:31:41;6.10;;;5.60;;
15567;SDS011;7885;42.596;23.044;2023-03-23T12:34:17;6.03;;;5.43;;
15567;SDS011;7885;42.596;23.044;2023-03-23T12:37:04;6.72;;;5.95;;
15567;SDS011;7885;42.596;23.044;2023-03-23T12:39:46;6.82;;;6.00;;
15567;SDS011;7885;42.596;23.044;2023-03-23T12:42:21;9.80;;;7.03;;
15567;SDS011;7885;42.596;23.044;2023-03-23T12:44:57;8.88;;;5.82;;
15567;SDS011;7885;42.596;23.044;2023-03-23T12:47:37;9.23;;;6.17;;
15567;SDS011;7885;42.596;23.044;2023-03-23T12:50:11;5.97;;;5.47;;
15567;SDS011;7885;42.596;23.044;2023-03-23T12:52:47;6.27;;;5.67;;
15567;SDS011;7885;42.596;23.044;2023-03-23T12:55:21;5.37;;;4.97;;
15567;SDS011;7885;42.596;23.044;2023-03-23T12:57:56;5.37;;;4.83;;
15567;SDS011;7885;42.596;23.044;2023-03-23T13:00:26;5.53;;;5.13;;
15567;SDS011;7885;42.596;23.044;2023-03-23T13:02:59;7.63;;;5.53;;
15567;SDS011;7885;42.596;23.044;2023-03-23T13:05:41;5.43;;;5.03;;
15567;SDS011;7885;42.596;23.044;2023-03-23T13:08:12;5.77;;;5.30;;
15567;SDS011;7885;42.596;23.044;2023-03-23T13:10:44;5.93;;;5.37;;
15567;SDS011;7885;42.596;23.044;2023-03-23T13:13:13;5.27;;;4.87;;
15567;SDS011;7885;42.596;23.044;2023-03-23T13:15:46;7.10;;;5.70;;
15567;SDS011;7885;42.596;23.044;2023-03-23T13:18:27;6.60;;;6.00;;
15567;SDS011;7885;42.596;23.044;2023-03-23T13:21:04;6.20;;;5.60;;
15567;SDS011;7885;42.596;23.044;2023-03-23T13:23:37;6.20;;;5.60;;
15567;SDS011;7885;42.596;23.044;2023-03-23T13:26:07;5.83;;;5.33;;
15567;SDS011;7885;42.596;23.044;2023-03-23T13:28:45;6.93;;;6.00;;
15567;SDS011;7885;42.596;23.044;2023-03-23T13:31:17;21.77;;;6.33;;
15567;SDS011;7885;42.596;23.044;2023-03-23T13:33:52;5.83;;;4.77;;
15567;SDS011;7885;42.596;23.044;2023-03-23T13:36:26;5.70;;;5.20;;
15567;SDS011;7885;42.596;23.044;2023-03-23T13:38:55;7.60;;;5.13;;
15567;SDS011;7885;42.596;23.044;2023-03-23T13:41:25;5.00;;;4.50;;
15567;SDS011;7885;42.596;23.044;2023-03-23T13:43:52;5.73;;;4.90;;
15567;SDS011;7885;42.596;23.044;2023-03-23T13:46:31;5.30;;;4.80;;
15567;SDS011;7885;42.596;23.044;2023-03-23T13:49:15;5.10;;;4.70;;
15567;SDS011;7885;42.596;23.044;2023-03-23T13:51:51;6.43;;;4.90;;
15567;SDS011;7885;42.596;23.044;2023-03-23T13:57:58;5.63;;;4.90;;
15567;SDS011;7885;42.596;23.044;2023-03-23T14:00:44;5.20;;;4.80;;
15567;SDS011;7885;42.596;23.044;2023-03-23T14:03:14;5.60;;;4.83;;
15567;SDS011;7885;42.596;23.044;2023-03-23T14:05:45;5.47;;;4.30;;
15567;SDS011;7885;42.596;23.044;2023-03-23T14:08:22;5.27;;;4.37;;
15567;SDS011;7885;42.596;23.044;2023-03-23T14:10:52;6.37;;;4.47;;
15567;SDS011;7885;42.596;23.044;2023-03-23T14:13:24;5.23;;;4.73;;
15567;SDS011;7885;42.596;23.044;2023-03-23T14:15:56;5.83;;;5.27;;
15567;SDS011;7885;42.596;23.044;2023-03-23T14:18:27;5.40;;;4.90;;
15567;SDS011;7885;42.596;23.044;2023-03-23T14:21:00;5.20;;;4.60;;
15567;SDS011;7885;42.596;23.044;2023-03-23T14:23:27;4.90;;;4.50;;
15567;SDS011;7885;42.596;23.044;2023-03-23T14:26:01;4.30;;;3.90;;
15567;SDS011;7885;42.596;23.044;2023-03-23T14:28:35;4.63;;;4.23;;
15567;SDS011;7885;42.596;23.044;2023-03-23T14:31:04;4.47;;;4.07;;
15567;SDS011;7885;42.596;23.044;2023-03-23T14:33:38;4.90;;;4.23;;
15567;SDS011;7885;42.596;23.044;2023-03-23T14:36:08;4.83;;;3.53;;
15567;SDS011;7885;42.596;23.044;2023-03-23T14:38:35;6.97;;;4.20;;
15567;SDS011;7885;42.596;23.044;2023-03-23T14:41:04;4.27;;;3.87;;
15567;SDS011;7885;42.596;23.044;2023-03-23T14:43:32;4.57;;;4.17;;
15567;SDS011;7885;42.596;23.044;2023-03-23T14:46:01;4.27;;;3.87;;
15567;SDS011;7885;42.596;23.044;2023-03-23T14:48:31;4.30;;;3.90;;
15567;SDS011;7885;42.596;23.044;2023-03-23T14:50:59;4.50;;;4.20;;
15567;SDS011;7885;42.596;23.044;2023-03-23T14:53:32;4.70;;;3.83;;
15567;SDS011;7885;42.596;23.044;2023-03-23T14:56:02;4.63;;;4.10;;
15567;SDS011;7885;42.596;23.044;2023-03-23T14:58:33;4.40;;;4.10;;
15567;SDS011;7885;42.596;23.044;2023-03-23T15:01:00;4.87;;;4.47;;
15567;SDS011;7885;42.596;23.044;2023-03-23T15:03:32;4.80;;;4.40;;
15567;SDS011;7885;42.596;23.044;2023-03-23T15:06:04;5.60;;;5.10;;
15567;SDS011;7885;42.596;23.044;2023-03-23T15:08:37;5.03;;;4.17;;
15567;SDS011;7885;42.596;23.044;2023-03-23T15:11:06;3.90;;;3.60;;
15567;SDS011;7885;42.596;23.044;2023-03-23T15:13:35;6.03;;;4.30;;
15567;SDS011;7885;42.596;23.044;2023-03-23T15:16:03;5.23;;;4.20;;